createdAt,value
2018-09-28T00:00:18.498Z,45.00
2018-09-28T00:01:18.487Z,45.00
2018-09-28T00:02:18.415Z,45.00
2018-09-28T00:03:18.384Z,45.00
2018-09-28T00:04:18.449Z,22.50
2018-09-28T00:05:18.484Z,22.50
2018-09-28T00:06:18.511Z,22.50
2018-09-28T00:07:18.406Z,45.00
2018-09-28T00:08:18.512Z,22.50
2018-09-28T00:09:18.453Z,112.50
2018-09-28T00:10:18.572Z,225.00
2018-09-28T00:11:18.492Z,22.50
2018-09-28T00:12:18.549Z,90.00
2018-09-28T00:13:18.458Z,22.50
2018-09-28T00:14:18.523Z,45.00
2018-09-28T00:15:18.485Z,22.50
2018-09-28T00:16:18.508Z,90.00
2018-09-28T00:17:18.521Z,337.50
2018-09-28T00:18:18.434Z,270.00
2018-09-28T00:19:18.479Z,315.00
2018-09-28T00:20:18.532Z,45.00
2018-09-28T00:21:18.464Z,0.00
2018-09-28T00:22:18.519Z,270.00
2018-09-28T00:23:18.506Z,90.00
2018-09-28T00:24:18.426Z,90.00
2018-09-28T00:25:18.497Z,22.50
2018-09-28T00:26:18.467Z,22.50
2018-09-28T00:27:18.517Z,90.00
2018-09-28T00:28:18.500Z,67.50
2018-09-28T00:29:18.427Z,67.50
2018-09-28T00:30:18.493Z,67.50
2018-09-28T00:31:18.459Z,67.50
2018-09-28T00:32:18.507Z,67.50
2018-09-28T00:33:18.441Z,90.00
2018-09-28T00:34:18.407Z,112.50
2018-09-28T00:35:18.522Z,135.00
2018-09-28T00:36:18.404Z,67.50
2018-09-28T00:37:18.476Z,45.00
2018-09-28T00:38:18.412Z,45.00
2018-09-28T00:39:18.568Z,67.50
2018-09-28T00:40:18.483Z,22.50
2018-09-28T00:41:18.533Z,157.50
2018-09-28T00:42:18.464Z,180.00
2018-09-28T00:43:18.491Z,157.50
2018-09-28T00:44:18.536Z,22.50
2018-09-28T00:45:18.510Z,22.50
2018-09-28T00:46:18.538Z,22.50
2018-09-28T00:47:18.539Z,22.50
2018-09-28T00:48:18.515Z,157.50
2018-09-28T00:49:18.471Z,45.00
2018-09-28T00:50:18.486Z,45.00
2018-09-28T00:51:18.547Z,45.00
2018-09-28T00:52:18.451Z,45.00
2018-09-28T00:53:18.440Z,135.00
2018-09-28T00:54:18.424Z,67.50
2018-09-28T00:55:18.515Z,270.00
2018-09-28T00:56:18.515Z,45.00
2018-09-28T00:57:18.508Z,22.50
2018-09-28T00:58:18.440Z,67.50
2018-09-28T00:59:18.438Z,67.50
2018-09-28T01:00:18.581Z,90.00
2018-09-28T01:01:18.494Z,135.00
2018-09-28T01:02:18.444Z,135.00
2018-09-28T01:03:18.464Z,112.50
2018-09-28T01:04:18.550Z,90.00
2018-09-28T01:05:18.567Z,45.00
2018-09-28T01:06:18.546Z,135.00
2018-09-28T01:07:18.467Z,112.50
2018-09-28T01:08:18.453Z,90.00
2018-09-28T01:09:18.498Z,90.00
2018-09-28T01:10:18.516Z,90.00
2018-09-28T01:11:18.442Z,67.50
2018-09-28T01:12:18.603Z,112.50
2018-09-28T01:13:18.546Z,112.50
2018-09-28T01:14:18.592Z,112.50
2018-09-28T01:15:18.556Z,112.50
2018-09-28T01:16:18.576Z,112.50
2018-09-28T01:17:18.479Z,112.50
2018-09-28T01:18:18.492Z,90.00
2018-09-28T01:19:18.548Z,90.00
2018-09-28T01:20:18.490Z,90.00
2018-09-28T01:21:18.573Z,67.50
2018-09-28T01:22:18.460Z,112.50
2018-09-28T01:23:18.448Z,135.00
2018-09-28T01:24:18.457Z,135.00
2018-09-28T01:25:18.456Z,112.50
2018-09-28T01:26:18.457Z,90.00
2018-09-28T01:27:18.536Z,157.50
2018-09-28T01:28:18.467Z,112.50
2018-09-28T01:29:18.467Z,22.50
2018-09-28T01:30:18.541Z,22.50
2018-09-28T01:31:18.533Z,22.50
2018-09-28T01:32:18.535Z,45.00
2018-09-28T01:33:18.469Z,67.50
2018-09-28T01:34:18.546Z,67.50
2018-09-28T01:35:18.571Z,45.00
2018-09-28T01:36:18.571Z,45.00
2018-09-28T01:37:18.580Z,45.00
2018-09-28T01:38:18.520Z,45.00
2018-09-28T01:39:18.589Z,45.00
2018-09-28T01:40:18.588Z,22.50
2018-09-28T01:41:18.529Z,22.50
2018-09-28T01:42:18.547Z,180.00
2018-09-28T01:43:18.548Z,22.50
2018-09-28T01:44:18.512Z,22.50
2018-09-28T01:45:18.567Z,67.50
2018-09-28T01:46:18.491Z,67.50
2018-09-28T01:47:18.552Z,45.00
2018-09-28T01:48:18.534Z,292.50
2018-09-28T01:49:18.527Z,247.50
2018-09-28T01:50:18.575Z,45.00
2018-09-28T01:51:18.536Z,22.50
2018-09-28T01:52:18.555Z,45.00
2018-09-28T01:53:18.562Z,67.50
2018-09-28T01:54:18.575Z,67.50
2018-09-28T01:55:18.477Z,67.50
2018-09-28T01:56:18.557Z,67.50
2018-09-28T01:57:18.559Z,67.50
2018-09-28T01:58:18.571Z,45.00
2018-09-28T01:59:18.484Z,22.50
2018-09-28T02:00:18.542Z,45.00
2018-09-28T02:01:18.594Z,45.00
2018-09-28T02:02:18.593Z,45.00
2018-09-28T02:03:18.523Z,22.50
2018-09-28T02:04:18.567Z,22.50
2018-09-28T02:05:18.572Z,0.00
2018-09-28T02:06:18.498Z,247.50
2018-09-28T02:07:18.509Z,270.00
2018-09-28T02:08:18.504Z,315.00
2018-09-28T02:09:18.505Z,315.00
2018-09-28T02:10:18.569Z,337.50
2018-09-28T02:11:18.506Z,90.00
2018-09-28T02:12:18.567Z,67.50
2018-09-28T02:13:18.573Z,45.00
2018-09-28T02:14:18.548Z,67.50
2018-09-28T02:15:18.534Z,67.50
2018-09-28T02:16:18.514Z,22.50
2018-09-28T02:17:18.605Z,67.50
2018-09-28T02:18:18.593Z,112.50
2018-09-28T02:19:18.582Z,90.00
2018-09-28T02:20:18.602Z,45.00
2018-09-28T02:21:18.588Z,45.00
2018-09-28T02:22:18.714Z,67.50
2018-09-28T02:23:18.580Z,90.00
2018-09-28T02:24:18.572Z,90.00
2018-09-28T02:25:18.544Z,112.50
2018-09-28T02:26:18.577Z,112.50
2018-09-28T02:27:18.575Z,112.50
2018-09-28T02:28:18.505Z,112.50
2018-09-28T02:29:18.579Z,90.00
2018-09-28T02:30:18.507Z,67.50
2018-09-28T02:31:18.587Z,90.00
2018-09-28T02:32:18.505Z,112.50
2018-09-28T02:33:18.581Z,112.50
2018-09-28T02:34:18.602Z,90.00
2018-09-28T02:35:18.519Z,112.50
2018-09-28T02:36:18.600Z,112.50
2018-09-28T02:37:18.471Z,112.50
2018-09-28T02:38:18.599Z,90.00
2018-09-28T02:39:18.610Z,45.00
2018-09-28T02:40:18.557Z,22.50
2018-09-28T02:41:18.600Z,22.50
2018-09-28T02:42:18.527Z,90.00
2018-09-28T02:43:18.603Z,112.50
2018-09-28T02:44:18.590Z,112.50
2018-09-28T02:45:18.511Z,67.50
2018-09-28T02:46:18.493Z,45.00
2018-09-28T02:47:18.578Z,45.00
2018-09-28T02:48:18.584Z,67.50
2018-09-28T02:49:18.602Z,112.50
2018-09-28T02:50:18.580Z,112.50
2018-09-28T02:51:18.467Z,112.50
2018-09-28T02:52:18.543Z,135.00
2018-09-28T02:53:18.583Z,135.00
2018-09-28T02:54:18.497Z,112.50
2018-09-28T02:55:18.538Z,135.00
2018-09-28T02:56:18.536Z,135.00
2018-09-28T02:57:18.604Z,112.50
2018-09-28T02:58:18.534Z,112.50
2018-09-28T02:59:18.606Z,90.00
2018-09-28T03:00:18.606Z,112.50
2018-09-28T03:01:18.543Z,90.00
2018-09-28T03:02:18.539Z,67.50
2018-09-28T03:03:18.542Z,67.50
2018-09-28T03:04:18.604Z,67.50
2018-09-28T03:05:18.532Z,67.50
2018-09-28T03:06:18.630Z,67.50
2018-09-28T03:07:18.498Z,67.50
2018-09-28T03:08:18.535Z,67.50
2018-09-28T03:09:18.528Z,45.00
2018-09-28T03:10:18.604Z,22.50
2018-09-28T03:11:18.536Z,22.50
2018-09-28T03:12:18.539Z,22.50
2018-09-28T03:13:18.619Z,22.50
2018-09-28T03:14:18.533Z,22.50
2018-09-28T03:15:18.585Z,22.50
2018-09-28T03:16:18.663Z,22.50
2018-09-28T03:17:18.535Z,157.50
2018-09-28T03:18:18.697Z,45.00
2018-09-28T03:19:18.684Z,22.50
2018-09-28T03:20:18.648Z,90.00
2018-09-28T03:21:18.619Z,135.00
2018-09-28T03:22:18.581Z,202.50
2018-09-28T03:23:18.648Z,337.50
2018-09-28T03:24:18.548Z,90.00
2018-09-28T03:25:18.551Z,135.00
2018-09-28T03:26:18.546Z,90.00
2018-09-28T03:27:18.622Z,67.50
2018-09-28T03:28:18.546Z,45.00
2018-09-28T03:29:18.555Z,45.00
2018-09-28T03:30:18.621Z,45.00
2018-09-28T03:31:18.557Z,45.00
2018-09-28T03:32:18.646Z,45.00
2018-09-28T03:33:18.632Z,67.50
2018-09-28T03:34:18.596Z,135.00
2018-09-28T03:35:18.641Z,135.00
2018-09-28T03:36:18.714Z,90.00
2018-09-28T03:37:18.652Z,67.50
2018-09-28T03:38:18.647Z,45.00
2018-09-28T03:39:18.698Z,67.50
2018-09-28T03:40:18.672Z,67.50
2018-09-28T03:41:18.578Z,45.00
2018-09-28T03:42:18.590Z,45.00
2018-09-28T03:43:18.660Z,135.00
2018-09-28T03:44:18.656Z,22.50
2018-09-28T03:45:18.712Z,67.50
2018-09-28T03:46:18.560Z,90.00
2018-09-28T03:47:18.557Z,67.50
2018-09-28T03:48:18.616Z,67.50
2018-09-28T03:49:18.680Z,135.00
2018-09-28T03:50:18.611Z,247.50
2018-09-28T03:51:18.633Z,22.50
2018-09-28T03:52:18.561Z,0.00
2018-09-28T03:53:18.563Z,22.50
2018-09-28T03:54:18.563Z,45.00
2018-09-28T03:55:18.516Z,22.50
2018-09-28T03:56:18.627Z,67.50
2018-09-28T03:57:18.601Z,45.00
2018-09-28T03:58:18.565Z,67.50
2018-09-28T03:59:18.610Z,67.50
2018-09-28T04:00:18.646Z,67.50
2018-09-28T04:01:18.605Z,45.00
2018-09-28T04:02:18.613Z,22.50
2018-09-28T04:03:18.553Z,45.00
2018-09-28T04:04:18.591Z,45.00
2018-09-28T04:05:18.648Z,45.00
2018-09-28T04:06:18.617Z,67.50
2018-09-28T04:07:18.617Z,45.00
2018-09-28T04:08:18.667Z,22.50
2018-09-28T04:09:18.657Z,45.00
2018-09-28T04:10:18.591Z,45.00
2018-09-28T04:11:18.663Z,45.00
2018-09-28T04:12:18.592Z,45.00
2018-09-28T04:13:18.586Z,45.00
2018-09-28T04:14:18.674Z,45.00
2018-09-28T04:15:18.616Z,67.50
2018-09-28T04:16:18.624Z,67.50
2018-09-28T04:17:18.635Z,67.50
2018-09-28T04:18:18.581Z,67.50
2018-09-28T04:19:18.668Z,112.50
2018-09-28T04:20:18.623Z,112.50
2018-09-28T04:21:18.578Z,67.50
2018-09-28T04:22:18.684Z,67.50
2018-09-28T04:23:18.682Z,67.50
2018-09-28T04:24:18.604Z,45.00
2018-09-28T04:25:18.804Z,45.00
2018-09-28T04:26:18.625Z,45.00
2018-09-28T04:27:18.680Z,45.00
2018-09-28T04:28:18.690Z,90.00
2018-09-28T04:29:18.646Z,112.50
2018-09-28T04:30:18.673Z,135.00
2018-09-28T04:31:18.668Z,90.00
2018-09-28T04:32:18.648Z,67.50
2018-09-28T04:33:18.708Z,135.00
2018-09-28T04:34:18.647Z,67.50
2018-09-28T04:35:18.692Z,90.00
2018-09-28T04:36:18.648Z,90.00
2018-09-28T04:37:18.609Z,90.00
2018-09-28T04:38:18.616Z,45.00
2018-09-28T04:39:18.636Z,157.50
2018-09-28T04:40:18.601Z,225.00
2018-09-28T04:41:18.700Z,45.00
2018-09-28T04:42:18.648Z,45.00
2018-09-28T04:43:18.741Z,45.00
2018-09-28T04:44:18.719Z,67.50
2018-09-28T04:45:18.829Z,67.50
2018-09-28T04:46:18.705Z,67.50
2018-09-28T04:47:18.698Z,45.00
2018-09-28T04:48:18.605Z,45.00
2018-09-28T04:49:18.695Z,67.50
2018-09-28T04:50:18.721Z,90.00
2018-09-28T04:51:18.716Z,67.50
2018-09-28T04:52:18.647Z,45.00
2018-09-28T04:53:18.749Z,45.00
2018-09-28T04:54:18.743Z,45.00
2018-09-28T04:55:18.684Z,67.50
2018-09-28T04:56:18.646Z,112.50
2018-09-28T04:57:18.670Z,67.50
2018-09-28T04:58:18.727Z,67.50
2018-09-28T04:59:18.605Z,90.00
2018-09-28T05:00:18.657Z,112.50
2018-09-28T05:01:18.664Z,90.00
2018-09-28T05:02:18.616Z,90.00
2018-09-28T05:03:18.712Z,90.00
2018-09-28T05:04:18.700Z,90.00
2018-09-28T05:05:18.741Z,90.00
2018-09-28T05:06:18.697Z,90.00
2018-09-28T05:07:18.627Z,90.00
2018-09-28T05:08:18.633Z,90.00
2018-09-28T05:09:18.701Z,90.00
2018-09-28T05:10:18.628Z,67.50
2018-09-28T05:11:18.629Z,45.00
2018-09-28T05:12:18.701Z,67.50
2018-09-28T05:13:18.708Z,67.50
2018-09-28T05:14:18.702Z,135.00
2018-09-28T05:15:18.619Z,202.50
2018-09-28T05:16:18.624Z,135.00
2018-09-28T05:17:18.676Z,157.50
2018-09-28T05:18:18.709Z,90.00
2018-09-28T05:19:18.673Z,90.00
2018-09-28T05:20:18.619Z,67.50
2018-09-28T05:21:18.645Z,67.50
2018-09-28T05:22:18.707Z,45.00
2018-09-28T05:23:18.717Z,45.00
2018-09-28T05:24:18.707Z,67.50
2018-09-28T05:25:18.744Z,67.50
2018-09-28T05:26:18.721Z,22.50
2018-09-28T05:27:18.713Z,45.00
2018-09-28T05:28:18.630Z,67.50
2018-09-28T05:29:18.693Z,67.50
2018-09-28T05:30:18.684Z,67.50
2018-09-28T05:31:18.843Z,90.00
2018-09-28T05:32:18.803Z,112.50
2018-09-28T05:33:18.630Z,90.00
2018-09-28T05:34:18.711Z,45.00
2018-09-28T05:35:18.749Z,45.00
2018-09-28T05:36:18.709Z,90.00
2018-09-28T05:37:18.691Z,90.00
2018-09-28T05:38:18.635Z,67.50
2018-09-28T05:39:18.787Z,90.00
2018-09-28T05:40:18.712Z,90.00
2018-09-28T05:41:18.649Z,67.50
2018-09-28T05:42:18.713Z,157.50
2018-09-28T05:43:18.651Z,180.00
2018-09-28T05:44:18.654Z,180.00
2018-09-28T05:45:18.690Z,180.00
2018-09-28T05:46:18.698Z,180.00
2018-09-28T05:47:18.660Z,202.50
2018-09-28T05:48:18.727Z,112.50
2018-09-28T05:49:18.660Z,67.50
2018-09-28T05:50:18.676Z,112.50
2018-09-28T05:51:18.669Z,157.50
2018-09-28T05:52:18.735Z,157.50
2018-09-28T05:53:18.736Z,90.00
2018-09-28T05:54:18.618Z,90.00
2018-09-28T05:55:18.734Z,90.00
2018-09-28T05:56:18.673Z,135.00
2018-09-28T05:57:18.662Z,135.00
2018-09-28T05:58:18.801Z,135.00
2018-09-28T05:59:18.696Z,157.50
2018-09-28T06:00:18.623Z,157.50
2018-09-28T06:01:18.670Z,202.50
2018-09-28T06:02:18.696Z,202.50
2018-09-28T06:03:18.669Z,135.00
2018-09-28T06:04:18.679Z,202.50
2018-09-28T06:05:18.729Z,157.50
2018-09-28T06:06:18.668Z,45.00
2018-09-28T06:07:18.667Z,22.50
2018-09-28T06:08:18.671Z,45.00
2018-09-28T06:09:18.737Z,45.00
2018-09-28T06:10:18.729Z,135.00
2018-09-28T06:11:18.670Z,157.50
2018-09-28T06:12:18.748Z,135.00
2018-09-28T06:13:18.668Z,112.50
2018-09-28T06:14:18.667Z,45.00
2018-09-28T06:15:18.638Z,90.00
2018-09-28T06:16:18.670Z,90.00
2018-09-28T06:17:18.642Z,67.50
2018-09-28T06:18:18.727Z,67.50
2018-09-28T06:19:18.738Z,45.00
2018-09-28T06:20:18.650Z,67.50
2018-09-28T06:21:18.734Z,90.00
2018-09-28T06:22:18.736Z,45.00
2018-09-28T06:23:18.618Z,67.50
2018-09-28T06:24:18.793Z,67.50
2018-09-28T06:25:18.679Z,67.50
2018-09-28T06:26:18.768Z,45.00
2018-09-28T06:27:18.753Z,22.50
2018-09-28T06:28:18.716Z,67.50
2018-09-28T06:29:18.683Z,45.00
2018-09-28T06:30:18.819Z,45.00
2018-09-28T06:31:18.672Z,45.00
2018-09-28T06:32:18.723Z,67.50
2018-09-28T06:33:18.762Z,90.00
2018-09-28T06:34:18.760Z,45.00
2018-09-28T06:35:18.733Z,112.50
2018-09-28T06:36:18.854Z,157.50
2018-09-28T06:37:18.794Z,157.50
2018-09-28T06:38:18.755Z,180.00
2018-09-28T06:39:18.724Z,180.00
2018-09-28T06:40:18.718Z,22.50
2018-09-28T06:41:18.738Z,22.50
2018-09-28T06:42:18.900Z,22.50
2018-09-28T06:43:18.738Z,225.00
2018-09-28T06:44:18.784Z,202.50
2018-09-28T06:45:18.639Z,202.50
2018-09-28T06:46:18.694Z,202.50
2018-09-28T06:47:18.635Z,157.50
2018-09-28T06:48:18.803Z,180.00
2018-09-28T06:49:18.636Z,180.00
2018-09-28T06:50:18.750Z,157.50
2018-09-28T06:51:18.656Z,157.50
2018-09-28T06:52:18.700Z,135.00
2018-09-28T06:53:18.759Z,90.00
2018-09-28T06:54:18.670Z,67.50
2018-09-28T06:55:18.720Z,67.50
2018-09-28T06:56:18.635Z,90.00
2018-09-28T06:57:18.627Z,67.50
2018-09-28T06:58:18.734Z,67.50
2018-09-28T06:59:18.690Z,67.50
2018-09-28T07:00:18.755Z,90.00
2018-09-28T07:01:18.631Z,157.50
2018-09-28T07:02:18.688Z,90.00
2018-09-28T07:03:18.630Z,112.50
2018-09-28T07:04:18.653Z,67.50
2018-09-28T07:05:18.714Z,67.50
2018-09-28T07:06:18.895Z,67.50
2018-09-28T07:07:18.775Z,67.50
2018-09-28T07:08:18.833Z,22.50
2018-09-28T07:09:18.725Z,157.50
2018-09-28T07:10:18.790Z,180.00
2018-09-28T07:11:18.714Z,157.50
2018-09-28T07:12:18.803Z,202.50
2018-09-28T07:13:18.718Z,157.50
2018-09-28T07:14:18.732Z,157.50
2018-09-28T07:15:18.652Z,202.50
2018-09-28T07:16:18.844Z,180.00
2018-09-28T07:17:18.723Z,180.00
2018-09-28T07:18:18.848Z,135.00
2018-09-28T07:19:18.741Z,157.50
2018-09-28T07:20:18.651Z,157.50
2018-09-28T07:21:18.645Z,157.50
2018-09-28T07:22:18.649Z,157.50
2018-09-28T07:23:18.719Z,180.00
2018-09-28T07:24:18.724Z,67.50
2018-09-28T07:25:18.694Z,315.00
2018-09-28T07:26:18.831Z,202.50
2018-09-28T07:27:18.707Z,157.50
2018-09-28T07:28:18.690Z,67.50
2018-09-28T07:29:18.700Z,45.00
2018-09-28T07:30:18.844Z,180.00
2018-09-28T07:31:18.748Z,180.00
2018-09-28T07:32:18.794Z,157.50
2018-09-28T07:33:18.822Z,202.50
2018-09-28T07:34:18.827Z,292.50
2018-09-28T07:35:18.795Z,180.00
2018-09-28T07:36:18.838Z,157.50
2018-09-28T07:37:18.860Z,180.00
2018-09-28T07:38:18.779Z,225.00
2018-09-28T07:39:18.831Z,112.50
2018-09-28T07:40:18.729Z,180.00
2018-09-28T07:41:18.780Z,270.00
2018-09-28T07:42:18.903Z,135.00
2018-09-28T07:43:18.747Z,22.50
2018-09-28T07:44:18.847Z,135.00
2018-09-28T07:45:18.688Z,337.50
2018-09-28T07:46:18.795Z,337.50
2018-09-28T07:47:18.725Z,180.00
2018-09-28T07:48:18.859Z,180.00
2018-09-28T07:49:18.879Z,202.50
2018-09-28T07:50:18.745Z,292.50
2018-09-28T07:51:18.730Z,247.50
2018-09-28T07:52:18.714Z,135.00
2018-09-28T07:53:18.756Z,225.00
2018-09-28T07:54:18.804Z,225.00
2018-09-28T07:55:18.731Z,292.50
2018-09-28T07:56:18.716Z,292.50
2018-09-28T07:57:18.713Z,247.50
2018-09-28T07:58:18.847Z,180.00
2018-09-28T07:59:18.822Z,180.00
2018-09-28T08:00:18.780Z,180.00
2018-09-28T08:01:18.784Z,180.00
2018-09-28T08:02:18.760Z,157.50
2018-09-28T08:03:18.824Z,180.00
2018-09-28T08:04:18.838Z,180.00
2018-09-28T08:05:18.773Z,22.50
2018-09-28T08:06:18.782Z,225.00
2018-09-28T08:07:18.754Z,270.00
2018-09-28T08:08:18.775Z,157.50
2018-09-28T08:09:18.803Z,202.50
2018-09-28T08:10:18.773Z,180.00
2018-09-28T08:11:18.779Z,157.50
2018-09-28T08:12:18.800Z,157.50
2018-09-28T08:13:18.697Z,157.50
2018-09-28T08:14:18.701Z,157.50
2018-09-28T08:15:18.793Z,180.00
2018-09-28T08:16:18.827Z,157.50
2018-09-28T08:17:18.801Z,135.00
2018-09-28T08:18:18.887Z,180.00
2018-09-28T08:19:18.783Z,180.00
2018-09-28T08:20:18.746Z,180.00
2018-09-28T08:21:18.769Z,135.00
2018-09-28T08:22:18.795Z,90.00
2018-09-28T08:23:18.814Z,67.50
2018-09-28T08:24:18.759Z,112.50
2018-09-28T08:25:18.849Z,180.00
2018-09-28T08:26:18.856Z,202.50
2018-09-28T08:27:18.879Z,157.50
2018-09-28T08:28:18.860Z,90.00
2018-09-28T08:29:18.803Z,180.00
2018-09-28T08:30:18.812Z,22.50
2018-09-28T08:31:18.896Z,315.00
2018-09-28T08:32:18.769Z,337.50
2018-09-28T08:33:18.756Z,247.50
2018-09-28T08:34:18.784Z,247.50
2018-09-28T08:35:18.840Z,247.50
2018-09-28T08:36:18.852Z,315.00
2018-09-28T08:37:18.844Z,225.00
2018-09-28T08:38:18.843Z,247.50
2018-09-28T08:39:18.849Z,315.00
2018-09-28T08:40:18.724Z,315.00
2018-09-28T08:41:18.851Z,247.50
2018-09-28T08:42:18.781Z,315.00
2018-09-28T08:43:18.781Z,292.50
2018-09-28T08:44:18.780Z,292.50
2018-09-28T08:45:18.778Z,292.50
2018-09-28T08:46:18.854Z,292.50
2018-09-28T08:47:18.851Z,270.00
2018-09-28T08:48:18.852Z,270.00
2018-09-28T08:49:18.903Z,292.50
2018-09-28T08:50:18.801Z,270.00
2018-09-28T08:51:18.805Z,315.00
2018-09-28T08:52:18.856Z,292.50
2018-09-28T08:53:18.874Z,292.50
2018-09-28T08:54:18.853Z,315.00
2018-09-28T08:55:18.900Z,225.00
2018-09-28T08:56:18.814Z,135.00
2018-09-28T08:57:18.857Z,112.50
2018-09-28T08:58:18.778Z,270.00
2018-09-28T08:59:18.755Z,292.50
2018-09-28T09:00:18.801Z,112.50
2018-09-28T09:01:18.798Z,157.50
2018-09-28T09:02:18.950Z,180.00
2018-09-28T09:03:18.881Z,247.50
2018-09-28T09:04:18.834Z,247.50
2018-09-28T09:05:18.784Z,315.00
2018-09-28T09:06:18.824Z,270.00
2018-09-28T09:07:18.891Z,292.50
2018-09-28T09:08:18.791Z,247.50
2018-09-28T09:09:18.824Z,315.00
2018-09-28T09:10:18.844Z,247.50
2018-09-28T09:11:18.770Z,292.50
2018-09-28T09:12:18.839Z,292.50
2018-09-28T09:13:18.846Z,292.50
2018-09-28T09:14:18.887Z,292.50
2018-09-28T09:15:18.841Z,247.50
2018-09-28T09:16:18.803Z,270.00
2018-09-28T09:17:18.810Z,247.50
2018-09-28T09:18:18.882Z,292.50
2018-09-28T09:19:18.879Z,292.50
2018-09-28T09:20:18.874Z,270.00
2018-09-28T09:21:18.877Z,270.00
2018-09-28T09:22:18.876Z,315.00
2018-09-28T09:23:18.813Z,247.50
2018-09-28T09:24:18.848Z,292.50
2018-09-28T09:25:18.848Z,270.00
2018-09-28T09:26:18.816Z,270.00
2018-09-28T09:27:18.800Z,247.50
2018-09-28T09:28:18.879Z,270.00
2018-09-28T09:29:18.907Z,292.50
2018-09-28T09:30:18.930Z,292.50
2018-09-28T09:31:18.846Z,270.00
2018-09-28T09:32:18.853Z,270.00
2018-09-28T09:34:18.900Z,270.00
2018-09-28T09:35:18.851Z,292.50
2018-09-28T09:36:18.858Z,292.50
2018-09-28T09:37:18.880Z,247.50
2018-09-28T09:38:18.914Z,247.50
2018-09-28T09:39:18.867Z,270.00
2018-09-28T09:40:18.939Z,292.50
2018-09-28T09:41:18.804Z,270.00
2018-09-28T09:42:18.806Z,270.00
2018-09-28T09:43:18.875Z,270.00
2018-09-28T09:44:18.825Z,247.50
2018-09-28T09:45:18.823Z,225.00
2018-09-28T09:46:19.005Z,270.00
2018-09-28T09:47:18.883Z,270.00
2018-09-28T09:48:18.880Z,270.00
2018-09-28T09:49:18.827Z,270.00
2018-09-28T09:50:18.828Z,270.00
2018-09-28T09:51:18.828Z,225.00
2018-09-28T09:52:18.902Z,270.00
2018-09-28T09:53:18.829Z,270.00
2018-09-28T09:54:18.906Z,292.50
2018-09-28T09:55:18.751Z,292.50
2018-09-28T09:56:18.757Z,292.50
2018-09-28T09:57:18.741Z,247.50
2018-09-28T09:58:18.860Z,247.50
2018-09-28T09:59:18.848Z,225.00
2018-09-28T10:00:18.820Z,247.50
2018-09-28T10:01:18.847Z,270.00
2018-09-28T10:02:18.756Z,270.00
2018-09-28T10:03:18.850Z,247.50
2018-09-28T10:04:18.810Z,270.00
2018-09-28T10:05:18.948Z,247.50
2018-09-28T10:06:18.826Z,225.00
2018-09-28T10:07:18.943Z,247.50
2018-09-28T10:08:18.903Z,270.00
2018-09-28T10:09:18.883Z,292.50
2018-09-28T10:10:18.906Z,292.50
2018-09-28T10:11:18.902Z,292.50
2018-09-28T10:12:18.937Z,202.50
2018-09-28T10:13:18.931Z,202.50
2018-09-28T10:14:18.896Z,247.50
2018-09-28T10:15:18.949Z,270.00
2018-09-28T10:16:18.815Z,270.00
2018-09-28T10:17:18.930Z,247.50
2018-09-28T10:18:18.829Z,202.50
2018-09-28T10:19:18.994Z,270.00
2018-09-28T10:20:18.972Z,292.50
2018-09-28T10:21:18.866Z,225.00
2018-09-28T10:22:18.977Z,247.50
2018-09-28T10:23:18.930Z,292.50
2018-09-28T10:24:18.946Z,202.50
2018-09-28T10:25:18.951Z,225.00
2018-09-28T10:26:18.843Z,247.50
2018-09-28T10:27:18.998Z,225.00
2018-09-28T10:28:18.851Z,247.50
2018-09-28T10:29:18.960Z,247.50
2018-09-28T10:30:18.883Z,270.00
2018-09-28T10:31:18.924Z,270.00
2018-09-28T10:32:18.886Z,292.50
2018-09-28T10:33:18.855Z,225.00
2018-09-28T10:34:18.980Z,202.50
2018-09-28T10:35:18.893Z,270.00
2018-09-28T10:36:18.997Z,225.00
2018-09-28T10:37:18.891Z,202.50
2018-09-28T10:38:18.835Z,247.50
2018-09-28T10:39:18.914Z,225.00
2018-09-28T10:40:18.958Z,292.50
2018-09-28T10:41:19.003Z,292.50
2018-09-28T10:42:18.890Z,225.00
2018-09-28T10:43:18.885Z,270.00
2018-09-28T10:44:18.951Z,270.00
2018-09-28T10:45:18.973Z,247.50
2018-09-28T10:46:18.858Z,270.00
2018-09-28T10:47:18.919Z,292.50
2018-09-28T10:48:18.928Z,247.50
2018-09-28T10:49:18.873Z,270.00
2018-09-28T10:50:18.869Z,225.00
2018-09-28T10:51:18.898Z,247.50
2018-09-28T10:52:19.116Z,247.50
2018-09-28T10:53:18.891Z,270.00
2018-09-28T10:54:18.839Z,202.50
2018-09-28T10:56:18.921Z,292.50
2018-09-28T10:57:18.889Z,180.00
2018-09-28T10:58:18.865Z,202.50
2018-09-28T10:59:18.844Z,292.50
2018-09-28T11:00:19.002Z,225.00
2018-09-28T11:01:18.906Z,270.00
2018-09-28T11:02:18.921Z,292.50
2018-09-28T11:03:19.034Z,202.50
2018-09-28T11:04:18.927Z,225.00
2018-09-28T11:05:18.962Z,270.00
2018-09-28T11:06:18.925Z,292.50
2018-09-28T11:07:18.947Z,225.00
2018-09-28T11:08:18.929Z,270.00
2018-09-28T11:09:18.996Z,270.00
2018-09-28T11:10:18.945Z,292.50
2018-09-28T11:11:18.910Z,292.50
2018-09-28T11:12:18.917Z,180.00
2018-09-28T11:13:18.947Z,247.50
2018-09-28T11:14:18.994Z,202.50
2018-09-28T11:15:19.038Z,247.50
2018-09-28T11:16:18.887Z,292.50
2018-09-28T11:17:18.958Z,270.00
2018-09-28T11:18:18.989Z,247.50
2018-09-28T11:19:18.858Z,270.00
2018-09-28T11:20:18.956Z,247.50
2018-09-28T11:21:18.918Z,225.00
2018-09-28T11:22:18.861Z,202.50
2018-09-28T11:23:18.956Z,225.00
2018-09-28T11:24:19.064Z,270.00
2018-09-28T11:25:18.864Z,157.50
2018-09-28T11:26:18.930Z,180.00
2018-09-28T11:27:19.005Z,180.00
2018-09-28T11:28:18.963Z,202.50
2018-09-28T11:29:19.003Z,270.00
2018-09-28T11:30:18.926Z,180.00
2018-09-28T11:31:18.985Z,270.00
2018-09-28T11:32:18.887Z,270.00
2018-09-28T11:33:19.048Z,270.00
2018-09-28T11:34:18.963Z,247.50
2018-09-28T11:35:18.934Z,270.00
2018-09-28T11:36:19.006Z,270.00
2018-09-28T11:37:18.886Z,247.50
2018-09-28T11:38:19.002Z,292.50
2018-09-28T11:39:19.003Z,225.00
2018-09-28T11:40:18.998Z,225.00
2018-09-28T11:41:18.910Z,270.00
2018-09-28T11:42:18.943Z,225.00
2018-09-28T11:43:18.983Z,225.00
2018-09-28T11:44:18.871Z,247.50
2018-09-28T11:45:18.928Z,247.50
2018-09-28T11:46:18.979Z,247.50
2018-09-28T11:47:18.947Z,202.50
2018-09-28T11:48:19.020Z,270.00
2018-09-28T11:49:18.951Z,270.00
2018-09-28T11:50:18.939Z,270.00
2018-09-28T11:51:18.991Z,270.00
2018-09-28T11:52:18.904Z,225.00
2018-09-28T11:53:18.924Z,270.00
2018-09-28T11:54:18.953Z,202.50
2018-09-28T11:55:19.044Z,202.50
2018-09-28T11:56:18.964Z,180.00
2018-09-28T11:57:18.959Z,247.50
2018-09-28T11:58:19.018Z,247.50
2018-09-28T11:59:18.988Z,225.00
2018-09-28T12:00:18.987Z,180.00
2018-09-28T12:01:18.977Z,225.00
2018-09-28T12:02:19.013Z,180.00
2018-09-28T12:03:18.976Z,180.00
2018-09-28T12:04:19.002Z,247.50
2018-09-28T12:05:18.985Z,225.00
2018-09-28T12:06:19.008Z,202.50
2018-09-28T12:07:18.987Z,247.50
2018-09-28T12:08:18.973Z,202.50
2018-09-28T12:09:18.985Z,225.00
2018-09-28T12:10:18.971Z,270.00
2018-09-28T12:11:18.909Z,202.50
2018-09-28T12:12:19.020Z,247.50
2018-09-28T12:13:18.975Z,225.00
2018-09-28T12:14:18.976Z,225.00
2018-09-28T12:15:18.991Z,225.00
2018-09-28T12:16:18.932Z,135.00
2018-09-28T12:17:18.931Z,202.50
2018-09-28T12:18:18.960Z,157.50
2018-09-28T12:19:18.960Z,180.00
2018-09-28T12:20:18.993Z,180.00
2018-09-28T12:21:19.045Z,202.50
2018-09-28T12:22:18.933Z,270.00
2018-09-28T12:23:18.934Z,202.50
2018-09-28T12:24:19.011Z,135.00
2018-09-28T12:25:18.997Z,180.00
2018-09-28T12:26:18.938Z,135.00
2018-09-28T12:27:19.072Z,180.00
2018-09-28T12:28:19.012Z,247.50
2018-09-28T12:29:19.007Z,180.00
2018-09-28T12:30:19.000Z,180.00
2018-09-28T12:31:18.945Z,157.50
2018-09-28T12:32:18.936Z,247.50
2018-09-28T12:33:19.072Z,225.00
2018-09-28T12:34:18.944Z,202.50
2018-09-28T12:35:19.009Z,157.50
2018-09-28T12:36:19.061Z,157.50
2018-09-28T12:37:18.944Z,202.50
2018-09-28T12:38:18.943Z,225.00
2018-09-28T12:39:19.120Z,225.00
2018-09-28T12:40:18.955Z,270.00